Time;durP1;ratioP1;P1;durP2;ratioP2;P2;SDS_P1;SDS_P2;PMS_P1;PMS_P2;Temp;Humidity;BMP_temperature;BMP_pressure;BME280_temperature;BME280_humidity;BME280_pressure;Samples;Min_cycle;Max_cycle;Signal;HPM_P1;HPM_P2
2022/09/10 00:00:57;;;;;;;15.98;9.38;;;;;;;20.42;67.16;93904.09;5006532;28;20045;-83
2022/09/10 00:03:23;;;;;;;14.18;8.80;;;;;;;20.40;67.23;93900.22;5006448;28;20312;-83
2022/09/10 00:05:49;;;;;;;15.10;9.00;;;;;;;20.33;67.50;93900.13;5006319;28;20037;-83
2022/09/10 00:08:17;;;;;;;14.98;8.98;;;;;;;20.35;67.57;93906.75;5006496;28;20046;-83
2022/09/10 00:10:45;;;;;;;17.08;8.73;;;;;;;20.35;67.34;93903.25;5006323;28;20030;-83
2022/09/10 00:13:12;;;;;;;15.57;8.00;;;;;;;20.30;67.73;93895.47;5006266;28;20022;-80
2022/09/10 00:15:44;;;;;;;18.20;8.45;;;;;;;20.30;67.70;93898.97;5007838;28;20084;-82
2022/09/10 00:18:10;;;;;;;14.45;8.75;;;;;;;20.30;68.12;93898.19;5006249;28;20065;-82
2022/09/10 00:20:46;;;;;;;16.70;8.75;;;;;;;20.24;68.16;93895.81;5008866;28;20237;-80
2022/09/10 00:23:17;;;;;;;13.63;8.77;;;;;;;20.23;68.08;93907.00;5010300;28;20392;-82
2022/09/10 00:25:53;;;;;;;17.55;8.43;;;;;;;20.21;68.48;93907.41;5009111;28;20045;-80
2022/09/10 00:28:40;;;;;;;16.13;7.85;;;;;;;20.21;67.99;93895.78;5008745;28;20033;-79
2022/09/10 00:31:15;;;;;;;12.85;8.10;;;;;;;20.25;68.09;93893.88;5009010;28;20034;-81
2022/09/10 00:33:41;;;;;;;21.70;7.65;;;;;;;20.26;67.90;93890.03;5009747;28;20029;-80
2022/09/10 00:36:20;;;;;;;22.67;7.82;;;;;;;20.21;66.95;93902.00;5009722;28;20030;-76
2022/09/10 00:38:47;;;;;;;12.93;7.40;;;;;;;20.19;67.31;93898.06;5008232;28;20029;-75
2022/09/10 00:41:13;;;;;;;15.48;7.55;;;;;;;20.26;68.14;93916.31;5007244;28;20339;-79
2022/09/10 00:44:01;;;;;;;13.70;7.78;;;;;;;20.24;67.79;93909.34;5005518;28;20053;-75
2022/09/10 00:46:43;;;;;;;16.38;7.53;;;;;;;20.16;67.95;93902.31;5005530;28;20042;-76
2022/09/10 00:49:16;;;;;;;14.68;7.97;;;;;;;20.17;67.99;93906.59;5005373;28;20037;-75
2022/09/10 00:51:45;;;;;;;13.48;7.18;;;;;;;20.23;68.16;93905.09;5005334;28;20030;-76
2022/09/10 00:54:11;;;;;;;13.82;8.27;;;;;;;20.23;67.86;93902.38;5005371;28;20026;-76
2022/09/10 00:56:37;;;;;;;17.48;7.82;;;;;;;20.26;68.44;93902.78;5005123;28;20206;-76
2022/09/10 00:59:07;;;;;;;19.63;7.63;;;;;;;20.24;68.20;93895.81;5005382;28;20022;-77
2022/09/10 01:01:35;;;;;;;12.32;7.13;;;;;;;20.22;68.21;93898.13;5005073;28;20051;-77
2022/09/10 01:04:03;;;;;;;11.43;7.60;;;;;;;20.23;68.78;93894.28;5005119;28;20033;-77
2022/09/10 01:06:28;;;;;;;13.73;8.25;;;;;;;20.22;68.48;93889.22;5005321;28;20026;-76
2022/09/10 01:08:55;;;;;;;14.98;7.93;;;;;;;20.17;68.06;93887.66;5005980;28;20029;-76
2022/09/10 01:11:56;;;;;;;11.70;7.60;;;;;;;20.26;68.69;93897.38;5005261;28;20054;-75
2022/09/10 01:14:22;;;;;;;22.75;8.88;;;;;;;20.24;68.47;93887.69;5004917;28;20022;-76
2022/09/10 01:17:05;;;;;;;12.23;8.40;;;;;;;20.26;68.15;93891.97;5005012;28;20332;-76
2022/09/10 01:19:43;;;;;;;15.10;7.95;;;;;;;20.31;68.36;93897.78;5004910;28;20041;-76
2022/09/10 01:22:56;;;;;;;13.65;8.60;;;;;;;20.27;68.31;93888.09;5019892;28;20022;-76
2022/09/10 01:25:39;;;;;;;17.83;9.32;;;;;;;20.27;68.02;93872.63;4968914;28;20043;-76
2022/09/10 01:28:12;;;;;;;14.00;8.10;;;;;;;20.32;68.42;93879.66;5004658;28;20069;-75
2022/09/10 01:30:49;;;;;;;14.05;8.43;;;;;;;20.31;68.13;93870.72;5004866;28;20022;-75
2022/09/10 01:33:21;;;;;;;13.27;8.35;;;;;;;20.35;68.44;93863.44;5019780;28;20228;-75
2022/09/10 01:36:00;;;;;;;13.80;8.40;;;;;;;20.34;68.42;93863.81;5004496;28;20382;-76
2022/09/10 01:38:37;;;;;;;17.45;9.15;;;;;;;20.29;68.85;93866.84;5004586;28;20069;-76
2022/09/10 01:41:03;;;;;;;16.63;8.20;;;;;;;20.32;68.71;93874.25;5003421;28;20255;-76
2022/09/10 01:43:29;;;;;;;14.38;8.18;;;;;;;20.31;68.86;93875.38;5004684;28;20137;-76
2022/09/10 01:46:08;;;;;;;19.55;9.05;;;;;;;20.29;68.86;93866.84;5004369;28;20022;-75
2022/09/10 01:49:08;;;;;;;17.85;8.85;;;;;;;20.31;69.13;93868.03;5002706;28;20022;-75
2022/09/10 01:51:47;;;;;;;17.77;8.82;;;;;;;20.32;69.43;93864.19;4989923;28;20098;-76
2022/09/10 01:54:24;;;;;;;11.50;7.97;;;;;;;20.30;69.35;93873.84;5005182;28;20042;-76
2022/09/10 01:57:01;;;;;;;18.52;8.77;;;;;;;20.29;69.47;93872.25;5004042;28;20213;-76
2022/09/10 01:59:33;;;;;;;17.30;9.45;;;;;;;20.29;69.77;93885.78;5004304;28;20097;-76
2022/09/10 02:02:12;;;;;;;14.23;9.07;;;;;;;20.27;69.47;93883.47;5004316;28;20042;-76
2022/09/10 02:04:39;;;;;;;15.68;9.27;;;;;;;20.23;68.65;93896.97;5004048;28;20030;-76
2022/09/10 02:07:06;;;;;;;14.13;9.40;;;;;;;20.15;68.73;93897.25;5003998;28;20033;-76
2022/09/10 02:09:32;;;;;;;26.90;9.48;;;;;;;20.16;69.38;93896.91;5003850;28;20045;-76
2022/09/10 02:11:57;;;;;;;16.92;8.82;;;;;;;20.21;69.84;93895.78;5004160;28;20065;-76
2022/09/10 02:14:23;;;;;;;16.42;9.20;;;;;;;20.21;69.46;93899.28;5003951;28;20037;-76
2022/09/10 02:16:57;;;;;;;17.52;9.90;;;;;;;20.18;69.51;93889.19;5003787;28;20014;-76
2022/09/10 02:19:25;;;;;;;21.48;10.07;;;;;;;20.17;68.81;93887.66;5003816;28;20065;-76
2022/09/10 02:21:52;;;;;;;16.70;9.45;;;;;;;20.16;69.10;93879.91;5003546;28;20149;-76
2022/09/10 02:24:18;;;;;;;14.25;9.85;;;;;;;20.17;69.35;93882.22;5003739;28;20018;-77
2022/09/10 02:26:46;;;;;;;14.07;9.52;;;;;;;20.15;69.31;93872.91;5003500;28;20158;-78
2022/09/10 02:29:14;;;;;;;18.60;9.20;;;;;;;20.14;69.46;93872.16;5003521;28;20268;-76
2022/09/10 02:31:40;;;;;;;18.35;10.05;;;;;;;20.13;69.12;93884.13;5003612;28;20113;-76
2022/09/10 02:34:06;;;;;;;17.85;9.25;;;;;;;20.13;69.34;93876.00;5003573;28;20031;-76
2022/09/10 02:36:31;;;;;;;13.55;9.10;;;;;;;20.13;69.71;93873.31;5003666;28;20022;-76
2022/09/10 02:38:58;;;;;;;14.48;8.52;;;;;;;20.11;69.71;93878.31;5003613;28;20053;-75
2022/09/10 02:41:24;;;;;;;13.88;8.07;;;;;;;20.07;69.99;93882.13;5003325;28;20223;-75
2022/09/10 02:43:54;;;;;;;17.52;8.85;;;;;;;20.05;69.71;93887.94;5003407;28;20033;-75
2022/09/10 02:46:20;;;;;;;17.23;9.75;;;;;;;20.01;69.89;93897.94;5003157;28;20046;-75
2022/09/10 02:48:46;;;;;;;15.27;9.02;;;;;;;19.96;69.72;93896.31;5003342;28;20022;-75
2022/09/10 02:51:11;;;;;;;21.60;8.85;;;;;;;19.93;69.93;93880.84;5002912;28;20317;-76
2022/09/10 02:53:37;;;;;;;15.82;8.45;;;;;;;19.91;70.11;93887.78;5003117;28;20030;-75
2022/09/10 02:56:03;;;;;;;17.25;9.80;;;;;;;19.84;70.03;93894.69;5003214;28;20050;-75
2022/09/10 02:58:30;;;;;;;16.17;9.52;;;;;;;19.79;70.35;93894.22;5003097;28;20034;-75
2022/09/10 03:01:08;;;;;;;16.67;9.63;;;;;;;19.78;70.12;93893.47;5003386;28;20053;-75
2022/09/10 03:03:35;;;;;;;14.57;9.85;;;;;;;19.73;70.37;93887.59;5003200;28;20030;-75
2022/09/10 03:06:01;;;;;;;20.30;8.90;;;;;;;19.75;71.22;93901.53;5003293;28;20030;-75
2022/09/10 03:08:26;;;;;;;16.40;9.13;;;;;;;19.67;71.24;93887.13;5003126;28;20022;-75
2022/09/10 03:10:52;;;;;;;13.43;8.75;;;;;;;19.63;71.24;93897.13;5003083;28;20046;-75
2022/09/10 03:13:17;;;;;;;13.95;9.32;;;;;;;19.63;71.70;93894.41;5003197;28;20029;-75
2022/09/10 03:15:43;;;;;;;22.35;9.15;;;;;;;19.65;71.00;93895.59;5003020;28;20253;-75
2022/09/10 03:18:14;;;;;;;22.83;9.60;;;;;;;19.66;71.25;93880.13;5003231;28;20042;-77
2022/09/10 03:20:40;;;;;;;18.80;10.10;;;;;;;19.61;71.28;93877.78;5003063;28;20337;-75
2022/09/10 03:23:06;;;;;;;25.77;10.55;;;;;;;19.62;71.27;93887.44;5003061;28;20031;-76
2022/09/10 03:25:31;;;;;;;17.05;9.65;;;;;;;19.65;71.10;93886.72;5003079;28;20098;-75
2022/09/10 03:27:58;;;;;;;16.25;10.50;;;;;;;19.70;71.44;93891.78;5004413;28;20105;-75
2022/09/10 03:30:24;;;;;;;15.25;10.32;;;;;;;19.72;71.56;93888.72;5002923;28;20219;-75
2022/09/10 03:32:49;;;;;;;16.52;9.57;;;;;;;19.72;71.46;93886.81;5002964;28;20097;-75
2022/09/10 03:35:15;;;;;;;17.10;10.00;;;;;;;19.73;71.85;93874.06;5003030;28;20052;-76
2022/09/10 03:37:41;;;;;;;18.80;9.90;;;;;;;19.74;71.63;93876.41;5002978;28;20022;-76
2022/09/10 03:40:07;;;;;;;25.42;10.68;;;;;;;19.76;72.07;93879.53;5002893;28;20181;-76
2022/09/10 03:42:33;;;;;;;24.67;10.75;;;;;;;19.77;72.03;93881.06;5002723;28;20030;-75
2022/09/10 03:44:58;;;;;;;23.23;9.93;;;;;;;19.78;72.28;93871.81;5002962;28;20383;-76
2022/09/10 03:47:24;;;;;;;15.73;10.07;;;;;;;19.79;72.33;93876.06;5002543;28;20038;-75
2022/09/10 03:49:49;;;;;;;20.95;10.43;;;;;;;19.79;72.50;93873.38;5002993;28;20033;-75
2022/09/10 03:52:16;;;;;;;19.83;10.65;;;;;;;19.76;72.42;93874.13;5002724;28;20073;-75
2022/09/10 03:54:41;;;;;;;18.02;10.77;;;;;;;19.78;72.35;93863.72;5002778;28;20072;-75
2022/09/10 03:57:07;;;;;;;16.20;10.02;;;;;;;19.78;72.36;93863.72;5002705;28;20061;-76
2022/09/10 03:59:33;;;;;;;20.23;10.10;;;;;;;19.78;72.30;93846.69;5002975;28;20082;-76
2022/09/10 04:02:00;;;;;;;19.33;9.75;;;;;;;19.77;72.55;93854.03;5002825;28;20210;-77
2022/09/10 04:04:26;;;;;;;21.77;10.30;;;;;;;19.76;72.75;93867.91;5005557;28;20046;-77
2022/09/10 04:06:54;;;;;;;22.35;10.13;;;;;;;19.65;72.35;93879.38;5006282;28;20033;-76
2022/09/10 04:09:19;;;;;;;15.20;10.10;;;;;;;19.57;72.68;93868.84;5021244;28;20034;-76
2022/09/10 04:11:45;;;;;;;23.20;10.23;;;;;;;19.56;72.81;93869.97;5006305;28;20081;-76
2022/09/10 04:14:11;;;;;;;22.50;9.90;;;;;;;19.57;73.13;93866.91;5006162;28;20026;-75
2022/09/10 04:16:37;;;;;;;16.27;9.70;;;;;;;19.59;73.52;93874.66;5005982;28;20053;-74
2022/09/10 04:19:02;;;;;;;23.25;9.48;;;;;;;19.60;73.20;93873.50;5006157;28;20026;-76
2022/09/10 04:21:28;;;;;;;21.52;10.00;;;;;;;19.63;73.31;93875.47;5006068;28;20089;-76
2022/09/10 04:23:59;;;;;;;21.10;9.85;;;;;;;19.65;73.27;93881.31;5005754;28;20072;-75
2022/09/10 04:26:25;;;;;;;18.73;9.90;;;;;;;19.68;72.65;93883.25;5005949;28;20308;-78
2022/09/10 04:28:52;;;;;;;21.27;9.65;;;;;;;19.66;72.55;93888.25;5005890;28;20022;-77
2022/09/10 04:31:18;;;;;;;19.88;10.68;;;;;;;19.59;72.72;93896.28;5005626;28;20018;-77
2022/09/10 04:33:44;;;;;;;17.02;10.15;;;;;;;19.55;73.20;93895.47;5005673;28;20018;-76
2022/09/10 04:36:11;;;;;;;21.88;10.80;;;;;;;19.56;73.25;93899.72;5004520;28;20034;-76
2022/09/10 04:38:40;;;;;;;18.55;9.63;;;;;;;19.59;73.37;93890.88;5005757;28;20027;-77
2022/09/10 04:41:06;;;;;;;16.92;9.73;;;;;;;19.65;73.74;93890.19;5005516;28;20260;-76
2022/09/10 04:43:32;;;;;;;15.45;9.60;;;;;;;19.69;73.46;93890.22;5005601;28;20206;-76
2022/09/10 04:45:57;;;;;;;18.13;10.43;;;;;;;19.73;73.65;93893.78;5005511;28;20026;-75
2022/09/10 04:48:24;;;;;;;23.13;10.35;;;;;;;19.76;73.43;93884.13;5003989;28;20050;-76
2022/09/10 04:50:51;;;;;;;20.80;10.10;;;;;;;19.75;72.78;93872.56;5004792;28;20336;-76
2022/09/10 04:53:17;;;;;;;20.15;10.20;;;;;;;19.80;73.05;93876.84;5004067;28;20105;-76
2022/09/10 04:55:45;;;;;;;22.20;9.77;;;;;;;19.78;72.28;93882.63;5004721;28;20018;-75
2022/09/10 04:58:12;;;;;;;34.35;9.95;;;;;;;19.75;72.80;93877.19;5003532;28;20021;-76
2022/09/10 05:00:38;;;;;;;20.73;10.30;;;;;;;19.67;73.18;93873.59;5003275;28;20061;-76
2022/09/10 05:03:04;;;;;;;18.63;9.55;;;;;;;19.72;73.30;93876.00;5004779;28;20085;-77
2022/09/10 05:05:31;;;;;;;22.52;10.23;;;;;;;19.78;73.36;93879.94;5005414;28;20026;-77
2022/09/10 05:07:58;;;;;;;14.55;9.65;;;;;;;19.83;73.53;93876.88;5005158;28;20056;-76
2022/09/10 05:10:23;;;;;;;20.40;11.23;;;;;;;19.88;73.37;93866.88;5005107;28;20359;-77
2022/09/10 05:12:49;;;;;;;18.85;9.82;;;;;;;19.96;73.95;93871.19;5004825;28;20023;-77
2022/09/10 05:15:15;;;;;;;21.23;10.65;;;;;;;19.97;73.83;93862.72;5005247;28;20018;-78
2022/09/10 05:17:40;;;;;;;20.95;10.40;;;;;;;20.03;73.79;93866.66;5004898;28;20049;-77
2022/09/10 05:20:06;;;;;;;16.27;9.93;;;;;;;20.06;73.55;93869.75;5004865;28;20093;-77
2022/09/10 05:22:34;;;;;;;16.98;10.30;;;;;;;20.04;73.56;93872.81;5005129;28;20042;-76
2022/09/10 05:25:00;;;;;;;24.67;12.00;;;;;;;20.01;73.30;93879.75;5004795;28;20026;-77
2022/09/10 05:27:25;;;;;;;20.38;11.95;;;;;;;20.04;73.20;93889.06;5004655;28;20026;-76
2022/09/10 05:29:51;;;;;;;24.45;12.40;;;;;;;20.03;72.84;93890.22;5019710;28;20026;-77
2022/09/10 05:32:17;;;;;;;23.52;13.63;;;;;;;20.01;73.07;93900.63;5004658;28;20038;-76
2022/09/10 05:34:47;;;;;;;26.48;11.57;;;;;;;19.96;73.27;93904.44;5004555;28;20042;-77
2022/09/10 05:37:16;;;;;;;23.27;10.40;;;;;;;19.92;73.32;93909.03;5004607;28;20025;-77
2022/09/10 05:39:41;;;;;;;23.85;13.05;;;;;;;19.90;73.90;93905.16;5004453;28;20022;-77
2022/09/10 05:42:07;;;;;;;23.65;11.30;;;;;;;19.90;74.41;93905.16;5004357;28;20324;-76
2022/09/10 05:44:33;;;;;;;24.15;11.60;;;;;;;19.91;74.09;93898.59;5004648;28;20045;-76
2022/09/10 05:46:58;;;;;;;18.52;10.23;;;;;;;19.89;73.37;93898.19;5004191;28;20061;-76
2022/09/10 05:49:24;;;;;;;17.33;10.50;;;;;;;19.98;73.71;93901.38;5004331;28;20025;-76
2022/09/10 05:51:50;;;;;;;23.13;10.23;;;;;;;20.03;73.81;93896.41;5004302;28;20240;-76
2022/09/10 05:54:15;;;;;;;23.00;10.93;;;;;;;20.10;73.58;93884.88;5004258;28;20213;-76
2022/09/10 05:56:41;;;;;;;22.77;11.40;;;;;;;20.18;72.87;93881.06;5003997;28;20029;-76
2022/09/10 05:59:06;;;;;;;22.95;10.90;;;;;;;20.30;71.84;93887.38;5004094;28;20313;-76
2022/09/10 06:01:32;;;;;;;19.45;10.63;;;;;;;20.40;70.67;93889.38;5004194;28;20334;-77
2022/09/10 06:03:58;;;;;;;22.08;11.25;;;;;;;20.57;70.35;93877.91;5003870;28;20073;-77
2022/09/10 06:06:27;;;;;;;18.73;10.73;;;;;;;20.71;69.31;93879.19;5003868;28;20018;-76
2022/09/10 06:08:55;;;;;;;17.20;10.50;;;;;;;20.82;68.54;93882.72;5004414;28;20026;-77
2022/09/10 06:11:23;;;;;;;21.02;10.27;;;;;;;20.89;68.18;93888.22;5019215;28;20018;-77
2022/09/10 06:13:49;;;;;;;20.02;11.35;;;;;;;20.95;67.74;93881.28;5003974;28;20074;-76
2022/09/10 06:16:15;;;;;;;24.33;11.52;;;;;;;21.02;67.85;93884.03;5003587;28;20018;-76
2022/09/10 06:18:41;;;;;;;23.60;11.27;;;;;;;21.08;67.80;93886.38;5003832;28;20022;-76
2022/09/10 06:21:11;;;;;;;22.00;13.00;;;;;;;21.12;67.00;93887.94;5003587;28;20053;-75
2022/09/10 06:23:38;;;;;;;22.45;11.68;;;;;;;21.10;67.98;93884.06;5003646;28;20029;-77
2022/09/10 06:26:10;;;;;;;23.35;12.15;;;;;;;21.09;67.92;93885.22;5002859;28;20026;-77
2022/09/10 06:28:35;;;;;;;;;;;;;;;21.04;67.37;93892.56;5004373;28;20053;-78
2022/09/10 06:31:04;;;;;;;19.27;12.38;;;;;;;20.98;67.48;93890.56;5002880;28;20176;-77
2022/09/10 06:33:48;;;;;;;23.42;12.35;;;;;;;21.04;67.75;93898.00;5003965;28;20048;-77
2022/09/10 06:36:17;;;;;;;24.15;13.57;;;;;;;21.07;67.55;93899.16;5003142;28;20256;-77
2022/09/10 06:38:45;;;;;;;25.38;11.18;;;;;;;21.08;67.58;93905.34;5003687;28;20026;-77
2022/09/10 06:41:13;;;;;;;28.83;13.02;;;;;;;21.07;67.65;93899.16;5002865;28;20089;-78
2022/09/10 06:43:40;;;;;;;27.38;12.68;;;;;;;21.13;67.79;93897.63;5002921;28;20026;-78
2022/09/10 06:46:17;;;;;;;21.92;12.65;;;;;;;21.21;67.11;93890.34;5003673;28;20061;-78
2022/09/10 06:48:44;;;;;;;21.83;12.90;;;;;;;21.24;66.23;93886.84;5003164;28;20056;-76
2022/09/10 06:51:11;;;;;;;18.65;11.98;;;;;;;21.32;65.92;93885.72;5003318;28;20022;-76
2022/09/10 06:53:38;;;;;;;19.48;11.75;;;;;;;21.38;66.05;93876.06;5003451;28;20092;-75
2022/09/10 06:56:07;;;;;;;48.15;14.57;;;;;;;21.46;65.71;93878.84;5003483;28;20030;-76
2022/09/10 06:58:34;;;;;;;27.48;14.00;;;;;;;21.54;65.53;93877.72;5003389;28;20049;-76
2022/09/10 07:01:09;;;;;;;24.70;12.95;;;;;;;21.61;65.90;93878.50;5002935;28;20026;-76
2022/09/10 07:03:35;;;;;;;28.00;11.93;;;;;;;21.69;65.56;93884.72;5003093;28;20317;-75
2022/09/10 07:06:06;;;;;;;24.25;13.02;;;;;;;21.78;64.72;93879.72;5003460;28;20033;-76
2022/09/10 07:08:31;;;;;;;20.85;12.18;;;;;;;21.88;64.82;93880.13;5003205;28;20093;-75
2022/09/10 07:11:06;;;;;;;27.05;13.18;;;;;;;22.01;64.13;93886.75;5003212;28;20022;-76
2022/09/10 07:13:39;;;;;;;18.88;12.73;;;;;;;22.12;64.06;93889.47;5004016;28;20085;-79
2022/09/10 07:16:05;;;;;;;25.08;12.57;;;;;;;22.21;64.08;93876.31;5003350;28;20094;-78
2022/09/10 07:18:32;;;;;;;25.35;12.85;;;;;;;22.18;62.93;93883.28;5004416;28;20033;-81
2022/09/10 07:21:09;;;;;;;29.90;13.73;;;;;;;22.13;63.09;93880.94;5004076;28;20030;-80
2022/09/10 07:23:35;;;;;;;23.05;11.77;;;;;;;22.27;62.11;93885.66;5002384;28;20042;-79
2022/09/10 07:26:05;;;;;;;22.38;13.30;;;;;;;22.30;61.86;93878.66;5003610;28;20026;-85
2022/09/10 07:28:31;;;;;;;34.10;14.88;;;;;;;22.28;62.08;93872.84;5003598;28;20030;-83
2022/09/10 07:30:56;;;;;;;24.40;11.18;;;;;;;22.29;61.17;93879.81;5004490;28;20042;-80
2022/09/10 07:33:22;;;;;;;21.98;13.10;;;;;;;22.32;61.90;93887.97;5003241;28;20057;-77
2022/09/10 07:35:48;;;;;;;26.77;12.48;;;;;;;22.35;61.75;93876.34;5003197;28;20097;-80
2022/09/10 07:38:16;;;;;;;25.33;11.40;;;;;;;22.34;61.57;93872.06;5004405;28;20085;-79
2022/09/10 07:40:42;;;;;;;23.02;10.00;;;;;;;22.34;61.09;93882.94;5007081;28;20053;-78
2022/09/10 07:43:08;;;;;;;22.48;10.52;;;;;;;22.43;60.92;93882.56;5007017;28;20026;-79
2022/09/10 07:45:34;;;;;;;26.60;9.82;;;;;;;22.53;60.21;93889.13;5006998;28;20033;-80
2022/09/10 07:47:59;;;;;;;15.77;10.35;;;;;;;22.63;59.36;93891.88;5006855;28;20096;-81
2022/09/10 07:50:25;;;;;;;22.63;9.70;;;;;;;22.69;59.53;93899.63;5006880;28;20201;-77
2022/09/10 07:52:51;;;;;;;17.45;8.93;;;;;;;22.85;58.73;93902.69;5006619;28;20030;-80
2022/09/10 07:55:17;;;;;;;15.05;8.70;;;;;;;22.93;57.96;93895.31;5005654;28;20037;-81
2022/09/10 07:57:44;;;;;;;18.90;9.55;;;;;;;23.02;58.95;93901.16;5006694;28;20026;-85
2022/09/10 08:00:13;;;;;;;22.35;9.23;;;;;;;23.09;59.06;93890.28;5006821;28;20030;-86
2022/09/10 08:02:43;;;;;;;22.92;9.25;;;;;;;23.21;58.19;93898.00;5006841;28;20050;-86
2022/09/10 08:05:09;;;;;;;15.45;8.02;;;;;;;23.25;58.20;93891.81;5021976;28;20029;-85
2022/09/10 08:07:38;;;;;;;21.73;7.93;;;;;;;23.36;57.44;93887.84;5006981;28;20026;-87
2022/09/10 08:10:08;;;;;;;18.27;8.18;;;;;;;23.52;56.35;93890.13;5007001;28;20276;-85
2022/09/10 08:12:39;;;;;;;13.25;7.20;;;;;;;23.63;55.50;93896.31;5006746;28;20371;-85
2022/09/10 08:15:07;;;;;;;18.10;8.32;;;;;;;23.69;55.57;93902.13;5007197;28;20018;-86
2022/09/10 08:17:34;;;;;;;17.15;7.50;;;;;;;23.74;56.01;93896.25;5007106;28;20018;-86
2022/09/10 08:20:00;;;;;;;19.13;7.63;;;;;;;23.78;57.07;93888.88;5021157;28;20014;-87
2022/09/10 08:22:26;;;;;;;10.50;8.35;;;;;;;23.85;57.46;93892.75;5006611;28;20073;-87
2022/09/10 08:24:52;;;;;;;21.08;9.10;;;;;;;23.87;57.67;93882.22;5007052;28;20057;-86
2022/09/10 08:27:18;;;;;;;20.95;8.00;;;;;;;23.99;56.64;93889.94;5007037;28;20045;-87
2022/09/10 08:29:43;;;;;;;21.25;8.73;;;;;;;24.16;56.11;93889.06;5006868;28;20316;-87
2022/09/10 08:32:12;;;;;;;19.88;7.85;;;;;;;24.30;54.67;93881.97;5021470;28;20022;-86
2022/09/10 08:34:39;;;;;;;14.15;7.60;;;;;;;24.50;54.45;93877.56;5006625;28;20097;-87
2022/09/10 08:37:05;;;;;;;14.88;7.72;;;;;;;24.73;54.12;93876.19;5006152;28;20042;-78
2022/09/10 08:39:30;;;;;;;14.25;7.70;;;;;;;24.89;53.55;93865.53;5005632;28;20313;-77
2022/09/10 08:42:04;;;;;;;17.08;7.70;;;;;;;25.06;52.23;93874.72;5004356;28;20057;-77
2022/09/10 08:44:35;;;;;;;17.13;7.78;;;;;;;25.22;53.08;93868.75;5003375;28;20058;-77
2022/09/10 08:47:20;;;;;;;14.55;8.13;;;;;;;25.35;52.82;93877.94;5002839;28;20317;-75
2022/09/10 08:49:53;;;;;;;22.50;8.32;;;;;;;25.47;52.05;93878.59;5003359;28;20026;-75
2022/09/10 08:52:32;;;;;;;16.77;7.85;;;;;;;25.59;51.49;93869.88;5003835;28;20336;-75
2022/09/10 08:55:16;;;;;;;16.98;7.15;;;;;;;25.74;50.76;93873.19;5003623;28;20030;-75
2022/09/10 08:57:58;;;;;;;14.35;7.15;;;;;;;25.90;50.85;93875.38;5003566;28;20027;-76
2022/09/10 09:00:28;;;;;;;18.50;7.18;;;;;;;26.02;49.79;93869.34;5003317;28;20089;-76
2022/09/10 09:03:08;;;;;;;19.17;7.18;;;;;;;26.14;49.16;93868.00;5003465;28;20338;-75
2022/09/10 09:05:56;;;;;;;18.73;8.15;;;;;;;26.18;50.41;93876.91;5003759;28;20038;-75
2022/09/10 09:08:27;;;;;;;21.27;7.32;;;;;;;26.13;50.29;93869.94;5003449;28;20069;-76
2022/09/10 09:10:58;;;;;;;16.88;8.10;;;;;;;26.10;49.97;93870.03;5003640;28;20084;-75
2022/09/10 09:13:32;;;;;;;15.38;7.93;;;;;;;26.10;49.83;93870.78;5003236;28;20109;-76
2022/09/10 09:16:03;;;;;;;23.83;8.23;;;;;;;26.12;49.56;93868.41;5003808;28;20038;-76
2022/09/10 09:18:51;;;;;;;24.50;8.88;;;;;;;26.18;49.59;93861.28;5005019;28;20110;-77
2022/09/10 09:21:26;;;;;;;17.00;7.70;;;;;;;26.20;49.47;93852.69;5004603;28;20328;-76
2022/09/10 09:23:54;;;;;;;15.95;7.55;;;;;;;26.21;49.40;93856.97;5004962;28;20026;-76
2022/09/10 09:26:26;;;;;;;16.27;7.68;;;;;;;26.23;49.27;93858.09;5004948;28;20098;-76
2022/09/10 09:28:56;;;;;;;18.42;7.38;;;;;;;26.20;48.87;93845.28;5005121;28;20022;-76
2022/09/10 09:31:27;;;;;;;23.40;9.00;;;;;;;26.16;49.86;93846.53;5004946;28;20236;-76
2022/09/10 09:33:59;;;;;;;14.18;7.78;;;;;;;26.18;50.84;93833.97;5004736;28;20053;-77
2022/09/10 09:36:35;;;;;;;17.75;7.93;;;;;;;26.17;50.90;93832.41;5004668;28;20032;-79
2022/09/10 09:39:09;;;;;;;15.40;8.20;;;;;;;26.20;51.65;93830.84;5004421;28;20092;-78
2022/09/10 09:42:09;;;;;;;17.65;7.80;;;;;;;26.26;51.26;93822.97;5004701;28;20022;-78
2022/09/10 09:44:39;;;;;;;14.82;7.63;;;;;;;26.23;50.97;93814.38;5001682;28;20077;-76
2022/09/10 09:47:07;;;;;;;18.35;7.75;;;;;;;26.28;50.89;93796.00;5004646;28;20080;-76
2022/09/10 09:49:33;;;;;;;21.73;8.18;;;;;;;26.31;51.10;93797.88;5004454;28;20043;-76
2022/09/10 09:52:01;;;;;;;17.13;8.75;;;;;;;26.38;50.17;93792.31;5019678;28;20165;-77
2022/09/10 09:54:28;;;;;;;17.40;7.65;;;;;;;26.43;49.38;93791.84;5003983;28;20038;-80
2022/09/10 09:56:57;;;;;;;24.10;7.28;;;;;;;26.48;48.90;93796.84;5004297;28;20072;-76
2022/09/10 09:59:33;;;;;;;18.17;7.07;;;;;;;26.51;48.93;93790.53;5004166;28;20088;-76
2022/09/10 10:02:13;;;;;;;13.05;7.90;;;;;;;26.58;48.47;93784.97;5003456;28;20037;-76
2022/09/10 10:04:52;;;;;;;13.93;7.75;;;;;;;26.71;48.69;93778.91;5004103;28;20026;-76
2022/09/10 10:07:25;;;;;;;16.90;8.32;;;;;;;26.83;49.14;93767.34;5004102;28;20190;-79
2022/09/10 10:09:51;;;;;;;17.52;7.65;;;;;;;27.00;48.80;93763.47;5003979;28;20022;-80
2022/09/10 10:12:20;;;;;;;17.08;7.82;;;;;;;27.22;47.81;93765.78;5003957;28;20018;-76
2022/09/10 10:14:46;;;;;;;24.35;7.15;;;;;;;27.35;47.32;93763.97;5004054;28;20082;-76
2022/09/10 10:17:24;;;;;;;14.90;7.25;;;;;;;27.54;46.89;93747.94;5003980;28;20030;-76
2022/09/10 10:20:06;;;;;;;19.80;7.57;;;;;;;27.72;45.98;93748.34;5003789;28;20300;-76
2022/09/10 10:22:31;;;;;;;16.90;7.28;;;;;;;27.78;45.59;93754.84;5003621;28;20328;-76
2022/09/10 10:24:59;;;;;;;17.00;7.30;;;;;;;27.81;44.64;93747.75;5004072;28;20029;-76
2022/09/10 10:27:41;;;;;;;17.95;7.38;;;;;;;27.93;44.46;93762.75;5003752;28;20018;-76
2022/09/10 10:30:16;;;;;;;15.38;6.95;;;;;;;28.08;44.40;93753.00;5004000;28;20097;-76
2022/09/10 10:33:27;;;;;;;12.60;7.18;;;;;;;28.29;43.85;93751.72;5003812;28;20072;-76
2022/09/10 10:36:02;;;;;;;15.50;6.85;;;;;;;28.38;43.36;93738.16;4999570;28;20104;-76
2022/09/10 10:38:39;;;;;;;26.17;7.45;;;;;;;28.50;43.33;93752.41;5003828;28;20117;-76
2022/09/10 10:41:24;;;;;;;21.92;7.05;;;;;;;28.58;42.79;93743.56;5003491;28;20030;-77
2022/09/10 10:44:22;;;;;;;18.27;6.93;;;;;;;28.65;42.99;93748.09;5003670;28;20022;-76
2022/09/10 10:47:15;;;;;;;12.85;6.85;;;;;;;28.72;43.29;93744.38;4995259;28;20097;-76
2022/09/10 10:49:46;;;;;;;12.95;6.63;;;;;;;28.81;42.58;93739.06;5003427;28;20317;-76
2022/09/10 10:52:28;;;;;;;15.40;7.35;;;;;;;28.90;42.36;93732.94;5003283;28;20032;-76
2022/09/10 10:55:02;;;;;;;17.42;7.28;;;;;;;29.10;41.80;93725.31;5003431;28;20080;-76
2022/09/10 10:57:52;;;;;;;23.25;7.68;;;;;;;29.25;41.98;93724.94;5003429;28;20544;-76
2022/09/10 11:00:19;;;;;;;22.55;6.75;;;;;;;29.42;41.27;93714.66;5003125;28;20317;-76
2022/09/10 11:02:54;;;;;;;20.70;7.93;;;;;;;29.64;41.21;93712.78;5003444;28;20026;-76
2022/09/10 11:05:37;;;;;;;16.88;6.75;;;;;;;29.80;40.69;93712.69;5003306;28;20022;-76
2022/09/10 11:08:11;;;;;;;17.52;6.13;;;;;;;29.95;40.37;93704.00;5003053;28;20026;-76
2022/09/10 11:10:49;;;;;;;23.90;6.75;;;;;;;30.08;40.42;93696.50;5003476;28;20065;-76
2022/09/10 11:13:26;;;;;;;13.13;7.05;;;;;;;30.29;40.63;93705.28;5006383;28;20036;-76
2022/09/10 11:15:54;;;;;;;14.05;7.45;;;;;;;30.44;39.15;93711.84;5007321;28;20326;-76
2022/09/10 11:18:22;;;;;;;14.25;5.55;;;;;;;30.46;36.38;93720.41;5007429;28;20037;-76
2022/09/10 11:21:01;;;;;;;17.20;5.55;;;;;;;30.21;36.92;93767.94;5007026;28;20034;-76
2022/09/10 11:23:32;;;;;;;23.38;4.28;;;;;;;28.53;41.53;93801.66;5007128;28;20037;-76
2022/09/10 11:26:09;;;;;;;20.88;3.75;;;;;;;27.20;43.15;93798.28;5006993;28;20030;-75
2022/09/10 11:28:42;;;;;;;20.27;3.08;;;;;;;26.03;45.38;93810.78;5007117;28;20042;-75
2022/09/10 11:31:23;;;;;;;12.07;2.90;;;;;;;24.96;48.57;93813.66;5006804;28;20089;-75
2022/09/10 11:34:21;;;;;;;10.82;3.45;;;;;;;24.23;52.27;93818.19;5006836;28;20026;-76
2022/09/10 11:37:26;;;;;;;10.55;3.28;;;;;;;23.62;56.87;93807.69;5006922;28;20056;-76